createdAt,value
2023-05-11T00:02:01.401Z,4.77
2023-05-11T00:04:28.521Z,5.20
2023-05-11T00:06:56.796Z,5.27
2023-05-11T00:09:23.738Z,4.93
2023-05-11T00:11:53.097Z,6.10
2023-05-11T00:14:20.127Z,5.83
2023-05-11T00:16:47.136Z,6.30
2023-05-11T00:19:14.180Z,5.93
2023-05-11T00:21:41.060Z,5.20
2023-05-11T00:24:08.588Z,5.47
2023-05-11T00:26:35.874Z,5.93
2023-05-11T00:29:03.219Z,5.33
2023-05-11T00:31:30.620Z,6.03
2023-05-11T00:33:57.700Z,6.00
2023-05-11T00:36:24.673Z,5.60
2023-05-11T00:38:52.931Z,6.07
2023-05-11T00:41:20.002Z,5.87
2023-05-11T00:43:47.039Z,6.10
2023-05-11T00:46:14.064Z,6.03
2023-05-11T00:48:42.266Z,6.17
2023-05-11T00:51:10.232Z,6.90
2023-05-11T00:53:37.271Z,6.50
2023-05-11T00:56:04.503Z,6.93
2023-05-11T00:58:32.027Z,7.37
2023-05-11T01:00:59.125Z,7.07
2023-05-11T01:03:26.718Z,8.03
2023-05-11T01:06:13.002Z,7.53
2023-05-11T01:09:06.581Z,6.80
2023-05-11T01:11:57.251Z,8.67
2023-05-11T01:14:34.748Z,7.93
2023-05-11T01:17:09.864Z,7.33
2023-05-11T01:19:43.432Z,7.87
2023-05-11T01:23:04.325Z,7.67
2023-05-11T01:25:53.428Z,8.83
2023-05-11T01:28:48.208Z,8.43
2023-05-11T01:31:18.076Z,9.30
2023-05-11T01:33:51.708Z,9.13
2023-05-11T01:36:21.084Z,8.50
2023-05-11T01:38:49.535Z,9.10
2023-05-11T01:41:20.027Z,9.50
2023-05-11T01:43:55.848Z,9.60
2023-05-11T01:46:27.414Z,8.97
2023-05-11T01:48:57.718Z,9.13
2023-05-11T01:51:27.639Z,9.10
2023-05-11T01:53:56.323Z,9.33
2023-05-11T01:56:25.087Z,10.03
2023-05-11T01:58:54.281Z,10.10
2023-05-11T02:01:21.845Z,9.43
2023-05-11T02:03:50.775Z,10.47
2023-05-11T02:06:20.014Z,10.43
2023-05-11T02:08:49.423Z,9.70
2023-05-11T02:11:17.274Z,10.33
2023-05-11T02:13:46.932Z,10.67
2023-05-11T02:16:16.554Z,11.57
2023-05-11T02:18:44.317Z,9.77
2023-05-11T02:21:12.487Z,10.60
2023-05-11T02:23:40.554Z,10.63
2023-05-11T02:26:09.181Z,11.37
2023-05-11T02:28:36.528Z,11.97
2023-05-11T02:31:09.560Z,11.33
2023-05-11T02:33:43.338Z,11.00
2023-05-11T02:36:13.376Z,10.63
2023-05-11T02:38:43.484Z,11.67
2023-05-11T02:41:14.877Z,11.27
2023-05-11T02:43:47.620Z,10.80
2023-05-11T02:46:19.162Z,12.20
2023-05-11T02:48:52.271Z,11.03
2023-05-11T02:51:24.527Z,11.80
2023-05-11T02:53:56.154Z,11.70
2023-05-11T02:56:24.921Z,11.23
2023-05-11T02:58:52.140Z,11.03
2023-05-11T03:01:19.977Z,12.27
2023-05-11T03:03:47.178Z,11.17
2023-05-11T03:06:15.346Z,11.30
2023-05-11T03:08:43.437Z,11.70
2023-05-11T03:11:12.686Z,12.53
2023-05-11T03:13:39.786Z,12.87
2023-05-11T03:16:07.855Z,10.63
2023-05-11T03:18:36.271Z,12.13
2023-05-11T03:21:03.461Z,12.37
2023-05-11T03:23:31.337Z,11.20
2023-05-11T03:25:59.607Z,12.43
2023-05-11T03:28:28.197Z,12.13
2023-05-11T03:30:55.324Z,10.80
2023-05-11T03:33:22.437Z,12.67
2023-05-11T03:35:51.613Z,12.20
2023-05-11T03:38:26.394Z,11.60
2023-05-11T03:40:55.997Z,13.03
2023-05-11T03:43:23.660Z,12.30
2023-05-11T03:45:53.401Z,11.43
2023-05-11T03:48:21.054Z,12.10
2023-05-11T03:50:49.124Z,11.23
2023-05-11T03:53:16.837Z,11.73
2023-05-11T03:55:43.891Z,12.47
2023-05-11T03:58:11.657Z,10.60
2023-05-11T04:00:42.712Z,10.50
2023-05-11T04:03:10.382Z,11.70
2023-05-11T04:05:37.420Z,12.77
2023-05-11T04:08:05.632Z,12.80
2023-05-11T04:10:32.798Z,11.67
2023-05-11T04:12:59.788Z,10.73
2023-05-11T04:15:26.769Z,11.80
2023-05-11T04:17:53.830Z,12.60
2023-05-11T04:20:21.034Z,12.90
2023-05-11T04:22:48.161Z,11.63
2023-05-11T04:25:15.209Z,12.07
2023-05-11T04:27:42.124Z,11.93
2023-05-11T04:30:09.600Z,12.43
2023-05-11T04:32:36.604Z,11.87
2023-05-11T04:35:03.991Z,11.23
2023-05-11T04:37:31.003Z,12.50
2023-05-11T04:39:58.137Z,10.47
2023-05-11T04:42:25.053Z,11.97
2023-05-11T04:44:55.246Z,10.83
2023-05-11T04:47:22.256Z,12.13
2023-05-11T04:49:49.194Z,12.97
2023-05-11T04:52:16.205Z,11.93
2023-05-11T04:54:43.471Z,11.63
2023-05-11T04:57:10.650Z,12.17
2023-05-11T04:59:37.695Z,11.27
2023-05-11T05:02:04.665Z,10.27
2023-05-11T05:04:32.978Z,12.13
2023-05-11T05:07:02.834Z,12.03
2023-05-11T05:09:29.755Z,12.07
2023-05-11T05:11:56.683Z,11.57
2023-05-11T05:14:23.789Z,10.90
2023-05-11T05:16:50.777Z,11.63
2023-05-11T05:19:17.709Z,11.67
2023-05-11T05:21:44.722Z,10.97
2023-05-11T05:24:12.306Z,11.80
2023-05-11T05:26:39.587Z,11.40
2023-05-11T05:29:07.148Z,12.13
2023-05-11T05:31:34.952Z,11.07
2023-05-11T05:34:01.932Z,11.83
2023-05-11T05:36:28.885Z,9.90
2023-05-11T05:38:55.862Z,10.83
2023-05-11T05:41:23.213Z,12.33
2023-05-11T05:43:50.208Z,11.63
2023-05-11T05:46:17.224Z,11.90
2023-05-11T05:48:44.259Z,12.03
2023-05-11T05:51:11.312Z,12.30
2023-05-11T05:53:38.354Z,12.07
2023-05-11T05:56:05.643Z,12.23
2023-05-11T05:58:32.626Z,13.57
2023-05-11T06:01:00.265Z,14.03
2023-05-11T06:03:29.621Z,12.47
2023-05-11T06:05:57.096Z,12.40
2023-05-11T06:08:24.066Z,13.17
2023-05-11T06:10:51.138Z,13.53
2023-05-11T06:13:19.509Z,13.20
2023-05-11T06:15:46.759Z,14.07
2023-05-11T06:18:13.734Z,14.50
2023-05-11T06:20:40.738Z,15.30
2023-05-11T06:23:08.720Z,14.17
2023-05-11T06:25:35.843Z,14.10
2023-05-11T06:28:03.093Z,16.43
2023-05-11T06:30:31.389Z,15.83
2023-05-11T06:32:58.422Z,15.57
2023-05-11T06:35:25.641Z,15.67
2023-05-11T06:37:52.540Z,15.70
2023-05-11T06:40:19.871Z,16.07
2023-05-11T06:42:47.083Z,15.93
2023-05-11T06:45:14.096Z,13.77
2023-05-11T06:47:41.779Z,14.17
2023-05-11T06:50:09.960Z,14.80
2023-05-11T06:52:36.972Z,16.27
2023-05-11T06:55:04.664Z,14.93
2023-05-11T06:57:31.667Z,14.90
2023-05-11T06:59:58.624Z,15.77
2023-05-11T07:02:25.603Z,16.10
2023-05-11T07:04:52.884Z,14.57
2023-05-11T07:07:19.975Z,15.33
2023-05-11T07:09:46.923Z,14.87
2023-05-11T07:12:13.913Z,13.17
2023-05-11T07:14:40.913Z,15.10
2023-05-11T07:17:08.000Z,15.23
2023-05-11T07:19:35.123Z,15.37
2023-05-11T07:22:02.210Z,14.23
2023-05-11T07:24:29.229Z,14.20
2023-05-11T07:26:57.512Z,14.93
2023-05-11T07:29:24.577Z,15.43
2023-05-11T07:31:51.829Z,14.50
2023-05-11T07:34:18.918Z,14.77
2023-05-11T07:36:46.906Z,14.80
2023-05-11T07:39:16.272Z,16.33
2023-05-11T07:41:43.526Z,15.10
2023-05-11T07:44:10.545Z,14.70
2023-05-11T07:46:37.550Z,15.60
2023-05-11T07:49:15.640Z,14.93
2023-05-11T07:51:47.676Z,14.30
2023-05-11T07:54:15.676Z,13.90
2023-05-11T07:56:42.646Z,14.03
2023-05-11T07:59:10.066Z,14.50
2023-05-11T08:01:37.820Z,13.33
2023-05-11T08:04:04.928Z,13.93
2023-05-11T08:06:31.861Z,13.23
2023-05-11T08:08:58.929Z,14.13
2023-05-11T08:11:26.423Z,12.60
2023-05-11T08:13:53.411Z,12.47
2023-05-11T08:16:20.386Z,12.47
2023-05-11T08:18:47.751Z,11.33
2023-05-11T08:21:15.083Z,12.70
2023-05-11T08:23:43.927Z,11.83
2023-05-11T08:26:12.060Z,10.83
2023-05-11T08:28:39.033Z,11.60
2023-05-11T08:31:06.406Z,10.50
2023-05-11T08:33:38.156Z,11.13
2023-05-11T08:36:06.983Z,10.60
2023-05-11T08:38:35.631Z,10.30
2023-05-11T08:41:03.089Z,8.30
2023-05-11T08:43:32.570Z,8.70
2023-05-11T08:46:04.040Z,8.83
2023-05-11T08:48:31.977Z,9.43
2023-05-11T08:50:59.720Z,9.43
2023-05-11T08:53:26.837Z,9.30
2023-05-11T08:55:57.555Z,8.03
2023-05-11T08:58:24.803Z,8.90
2023-05-11T09:00:52.199Z,7.83
2023-05-11T09:03:20.049Z,13.70
2023-05-11T09:05:48.398Z,8.97
2023-05-11T09:08:18.099Z,8.70
2023-05-11T09:10:45.301Z,5.83
2023-05-11T09:13:12.785Z,7.30
2023-05-11T09:15:39.888Z,5.97
2023-05-11T09:18:07.157Z,6.73
2023-05-11T09:20:35.003Z,5.40
2023-05-11T09:23:03.060Z,4.53
2023-05-11T09:25:35.049Z,4.33
2023-05-11T09:28:02.194Z,3.87
2023-05-11T09:30:29.199Z,3.17
2023-05-11T09:33:01.051Z,2.90
2023-05-11T09:35:31.823Z,3.93
2023-05-11T09:38:02.508Z,3.40
2023-05-11T09:40:34.258Z,3.07
2023-05-11T09:43:02.407Z,3.30
2023-05-11T09:45:40.150Z,2.00
2023-05-11T09:48:12.850Z,2.53
2023-05-11T09:50:39.860Z,3.00
2023-05-11T09:53:07.034Z,2.47
2023-05-11T09:55:34.022Z,1.93
2023-05-11T09:58:01.348Z,1.60
2023-05-11T10:00:28.542Z,3.10
2023-05-11T10:03:06.816Z,2.30
2023-05-11T10:05:37.133Z,2.00
2023-05-11T10:08:05.548Z,1.80
2023-05-11T10:10:34.694Z,1.43
2023-05-11T10:13:02.956Z,1.73
2023-05-11T10:15:32.418Z,1.30
2023-05-11T10:18:02.676Z,1.23
2023-05-11T10:20:29.764Z,1.90
2023-05-11T10:22:57.033Z,1.63
2023-05-11T10:25:25.496Z,1.40
2023-05-11T10:27:53.538Z,1.57
2023-05-11T10:30:21.305Z,0.90
2023-05-11T10:32:49.453Z,1.00
2023-05-11T10:35:16.677Z,1.10
2023-05-11T10:37:43.908Z,1.00
2023-05-11T10:40:12.193Z,1.00
2023-05-11T10:42:44.952Z,1.00
2023-05-11T10:45:32.192Z,0.73
2023-05-11T10:48:14.395Z,0.77
2023-05-11T10:51:19.126Z,0.70
2023-05-11T10:54:14.636Z,0.80
2023-05-11T10:57:16.721Z,1.27
2023-05-11T11:00:10.438Z,1.23
2023-05-11T11:02:38.197Z,1.43
2023-05-11T11:05:09.997Z,2.30
2023-05-11T11:08:00.143Z,2.43
2023-05-11T11:10:41.262Z,2.57
2023-05-11T11:13:15.502Z,3.33
2023-05-11T11:15:54.798Z,3.70
2023-05-11T11:18:35.003Z,2.03
2023-05-11T11:21:03.211Z,2.17
2023-05-11T11:23:50.382Z,2.40
2023-05-11T11:26:38.644Z,3.10
2023-05-11T11:29:09.390Z,2.80
2023-05-11T11:31:37.337Z,3.30
2023-05-11T11:34:29.227Z,3.00
2023-05-11T11:36:56.194Z,3.90
2023-05-11T11:39:25.608Z,3.50
2023-05-11T11:42:08.418Z,2.80
2023-05-11T11:44:36.152Z,3.23
2023-05-11T11:47:16.448Z,3.23
2023-05-11T11:49:47.517Z,2.77
2023-05-11T11:52:32.409Z,4.00
2023-05-11T11:55:01.218Z,3.37
2023-05-11T11:57:38.081Z,3.13
2023-05-11T12:00:07.426Z,2.77
2023-05-11T12:02:35.144Z,3.60
2023-05-11T12:05:24.230Z,3.47
2023-05-11T12:07:53.416Z,2.80
2023-05-11T12:10:22.329Z,3.10
2023-05-11T12:12:50.979Z,3.13
2023-05-11T12:15:34.725Z,3.63
2023-05-11T12:18:03.407Z,3.47
2023-05-11T12:20:30.751Z,3.80
2023-05-11T12:22:57.761Z,3.07
2023-05-11T12:25:24.826Z,3.60
2023-05-11T12:28:03.244Z,3.43
2023-05-11T12:30:32.436Z,3.60
2023-05-11T12:33:00.863Z,3.80
2023-05-11T12:35:33.968Z,3.17
2023-05-11T12:38:05.240Z,3.17
2023-05-11T12:40:33.093Z,3.67
2023-05-11T12:43:01.047Z,3.30
2023-05-11T12:45:29.369Z,3.10
2023-05-11T12:47:58.695Z,3.20
2023-05-11T12:50:25.707Z,3.33
2023-05-11T12:52:52.931Z,2.90
2023-05-11T12:55:30.168Z,2.63
2023-05-11T12:58:16.621Z,3.80
2023-05-11T13:00:57.768Z,3.80
2023-05-11T13:03:26.717Z,3.10
2023-05-11T13:06:18.941Z,2.97
2023-05-11T13:08:46.904Z,2.67
2023-05-11T13:11:25.925Z,3.07
2023-05-11T13:13:54.185Z,3.40
2023-05-11T13:16:28.259Z,3.80
2023-05-11T13:19:00.668Z,3.13
2023-05-11T13:21:29.867Z,3.60
2023-05-11T13:23:56.949Z,3.70
2023-05-11T13:26:30.014Z,3.40
2023-05-11T13:29:09.516Z,3.10
2023-05-11T13:31:49.431Z,3.97
2023-05-11T13:34:17.395Z,3.67
2023-05-11T13:36:44.601Z,3.60
2023-05-11T13:39:11.634Z,3.57
2023-05-11T13:41:38.825Z,3.40
2023-05-11T13:44:05.784Z,3.30
2023-05-11T13:46:32.831Z,3.70
2023-05-11T13:49:01.073Z,3.37
2023-05-11T13:51:28.112Z,4.93
2023-05-11T13:53:55.365Z,3.53
2023-05-11T13:56:22.372Z,3.53
2023-05-11T13:58:49.768Z,2.83
2023-05-11T14:01:17.548Z,3.03
2023-05-11T14:03:44.573Z,4.60
2023-05-11T14:06:11.627Z,2.93
2023-05-11T14:08:38.870Z,3.23
2023-05-11T14:11:06.057Z,2.43
2023-05-11T14:13:33.970Z,2.97
2023-05-11T14:16:01.658Z,2.70
2023-05-11T14:18:28.913Z,2.83
2023-05-11T14:20:57.012Z,3.70
2023-05-11T14:23:24.032Z,3.20
2023-05-11T14:25:51.080Z,4.00
2023-05-11T14:28:18.076Z,4.10
2023-05-11T14:30:45.389Z,4.13
2023-05-11T14:33:12.391Z,4.30
2023-05-11T14:35:40.129Z,4.53
2023-05-11T14:38:07.200Z,4.80
2023-05-11T14:40:34.157Z,4.03
2023-05-11T14:43:01.506Z,4.40
2023-05-11T14:45:29.042Z,4.83
2023-05-11T14:47:56.213Z,4.40
2023-05-11T14:50:23.199Z,3.87
2023-05-11T14:52:50.187Z,4.30
2023-05-11T14:55:17.336Z,4.47
2023-05-11T14:57:44.372Z,4.77
2023-05-11T15:00:12.959Z,4.30
2023-05-11T15:02:40.235Z,4.00
2023-05-11T15:05:07.909Z,3.63
2023-05-11T15:07:35.043Z,4.13
2023-05-11T15:10:02.284Z,4.20
2023-05-11T15:12:29.575Z,4.30
2023-05-11T15:14:56.557Z,4.20
2023-05-11T15:17:23.555Z,3.93
2023-05-11T15:19:50.616Z,4.30
2023-05-11T15:22:17.617Z,4.67
2023-05-11T15:24:44.673Z,6.00
2023-05-11T15:27:11.823Z,5.83
2023-05-11T15:29:38.903Z,7.47
2023-05-11T15:32:06.473Z,6.63
2023-05-11T15:34:33.990Z,6.60
2023-05-11T15:37:01.009Z,6.77
2023-05-11T15:39:27.996Z,7.13
2023-05-11T15:41:54.929Z,6.00
2023-05-11T15:44:22.080Z,5.33
2023-05-11T15:46:49.124Z,5.37
2023-05-11T15:49:16.982Z,4.77
2023-05-11T15:51:43.910Z,3.77
2023-05-11T15:54:10.878Z,3.93
2023-05-11T15:56:37.785Z,4.27
2023-05-11T15:59:04.723Z,3.47
2023-05-11T16:01:31.761Z,2.90
2023-05-11T16:03:59.335Z,2.90
2023-05-11T16:06:26.386Z,2.60
2023-05-11T16:08:53.453Z,3.00
2023-05-11T16:11:20.475Z,2.73
2023-05-11T16:13:47.609Z,2.80
2023-05-11T16:16:14.807Z,2.77
2023-05-11T16:18:41.873Z,2.30
2023-05-11T16:21:08.858Z,3.07
2023-05-11T16:23:36.100Z,2.70
2023-05-11T16:26:03.116Z,2.70
2023-05-11T16:28:33.325Z,2.53
2023-05-11T16:31:00.817Z,3.03
2023-05-11T16:33:27.718Z,3.33
2023-05-11T16:35:54.733Z,3.20
2023-05-11T16:38:22.708Z,3.40
2023-05-11T16:40:50.491Z,2.83
2023-05-11T16:43:17.621Z,3.23
2023-05-11T16:45:44.655Z,2.60
2023-05-11T16:48:11.760Z,3.07
2023-05-11T16:50:38.817Z,2.33
2023-05-11T16:53:05.796Z,2.40
2023-05-11T16:55:33.324Z,2.83
2023-05-11T16:58:00.331Z,2.50
2023-05-11T17:00:28.422Z,2.50
2023-05-11T17:02:55.602Z,2.93
2023-05-11T17:05:23.199Z,2.93
2023-05-11T17:07:50.302Z,3.27
2023-05-11T17:10:17.625Z,4.33
2023-05-11T17:12:44.871Z,3.87
2023-05-11T17:15:11.917Z,3.20
2023-05-11T17:17:39.296Z,4.10
2023-05-11T17:20:07.821Z,3.50
2023-05-11T17:22:35.313Z,4.40
2023-05-11T17:25:05.588Z,4.83
2023-05-11T17:27:32.595Z,4.50
2023-05-11T17:29:59.497Z,4.13
2023-05-11T17:32:26.674Z,3.63
2023-05-11T17:34:54.162Z,3.37
2023-05-11T17:37:31.403Z,3.20
2023-05-11T17:40:01.120Z,3.63
2023-05-11T17:42:28.578Z,3.40
2023-05-11T17:44:56.172Z,3.87
2023-05-11T17:47:23.141Z,3.50
2023-05-11T17:49:50.589Z,3.47
2023-05-11T17:52:17.618Z,3.33
2023-05-11T17:54:44.548Z,3.93
2023-05-11T17:57:11.573Z,2.73
2023-05-11T17:59:38.532Z,2.50
2023-05-11T18:02:05.659Z,2.70
2023-05-11T18:04:32.664Z,2.90
2023-05-11T18:07:00.433Z,2.70
2023-05-11T18:09:27.358Z,2.83
2023-05-11T18:11:54.351Z,2.73
2023-05-11T18:14:21.309Z,2.50
2023-05-11T18:16:49.610Z,2.40
2023-05-11T18:19:17.672Z,2.47
2023-05-11T18:21:44.935Z,2.47
2023-05-11T18:24:14.693Z,2.50
2023-05-11T18:26:42.264Z,3.10
2023-05-11T18:29:09.552Z,3.77
2023-05-11T18:31:37.618Z,3.00
2023-05-11T18:34:04.848Z,2.87
2023-05-11T18:36:31.799Z,3.07
2023-05-11T18:38:58.687Z,3.43
2023-05-11T18:41:25.619Z,3.07
2023-05-11T18:43:54.509Z,2.80
2023-05-11T18:46:22.570Z,2.80
2023-05-11T18:48:53.496Z,3.20
2023-05-11T18:51:22.901Z,2.63
2023-05-11T18:53:50.397Z,2.50
2023-05-11T18:56:17.521Z,2.40
2023-05-11T18:58:45.485Z,2.40
2023-05-11T19:01:12.659Z,2.60
2023-05-11T19:03:39.752Z,2.37
2023-05-11T19:06:07.773Z,2.90
2023-05-11T19:08:35.289Z,2.63
2023-05-11T19:11:07.847Z,2.93
2023-05-11T19:13:35.021Z,3.00
2023-05-11T19:16:04.253Z,2.70
2023-05-11T19:18:35.397Z,2.93
2023-05-11T19:21:04.948Z,2.70
2023-05-11T19:23:32.895Z,3.20
2023-05-11T19:26:00.425Z,2.87
2023-05-11T19:28:27.508Z,2.23
2023-05-11T19:31:05.481Z,3.20
2023-05-11T19:33:33.128Z,3.50
2023-05-11T19:36:00.191Z,2.87
2023-05-11T19:38:27.545Z,2.60
2023-05-11T19:40:54.566Z,4.30
2023-05-11T19:43:23.733Z,4.70
2023-05-11T19:45:50.870Z,4.70
2023-05-11T19:48:20.493Z,3.80
2023-05-11T19:50:49.529Z,3.70
2023-05-11T19:53:16.702Z,3.83
2023-05-11T19:55:47.867Z,4.07
2023-05-11T19:58:15.261Z,4.10
2023-05-11T20:00:44.448Z,4.40
2023-05-11T20:03:17.527Z,4.83
2023-05-11T20:05:47.869Z,4.27
2023-05-11T20:08:18.059Z,5.27
2023-05-11T20:10:46.245Z,5.37
2023-05-11T20:13:15.331Z,5.00
2023-05-11T20:15:44.428Z,5.00
2023-05-11T20:18:12.071Z,4.77
2023-05-11T20:20:44.091Z,4.90
2023-05-11T20:23:14.524Z,5.43
2023-05-11T20:25:43.914Z,6.27
2023-05-11T20:28:12.384Z,6.27
2023-05-11T20:30:39.370Z,6.93
2023-05-11T20:35:41.563Z,7.63
2023-05-11T20:38:11.926Z,6.47
2023-05-11T20:40:42.222Z,14.57
2023-05-11T20:43:09.142Z,6.90
2023-05-11T20:45:36.379Z,6.27
2023-05-11T20:48:06.576Z,8.03
2023-05-11T20:50:35.654Z,6.60
2023-05-11T20:53:03.688Z,4.73
2023-05-11T20:55:31.096Z,4.90
2023-05-11T20:57:59.154Z,4.23
2023-05-11T21:00:29.218Z,3.73
2023-05-11T21:02:59.323Z,3.30
2023-05-11T21:05:26.439Z,4.47
2023-05-11T21:07:57.348Z,5.33
2023-05-11T21:10:24.551Z,5.93
2023-05-11T21:12:54.851Z,7.30
2023-05-11T21:15:21.792Z,7.00
2023-05-11T21:17:51.995Z,7.93
2023-05-11T21:20:22.152Z,9.10
2023-05-11T21:22:50.287Z,9.20
2023-05-11T21:25:20.356Z,8.67
2023-05-11T21:27:50.782Z,9.57
2023-05-11T21:30:17.990Z,10.07
2023-05-11T21:32:50.545Z,10.40
2023-05-11T21:35:18.886Z,9.70
2023-05-11T21:37:49.699Z,9.93
2023-05-11T21:40:18.138Z,11.33
2023-05-11T21:42:45.704Z,11.03
2023-05-11T21:45:16.024Z,10.87
2023-05-11T21:47:46.405Z,11.60
2023-05-11T21:50:13.366Z,12.33
2023-05-11T21:52:41.329Z,12.10
2023-05-11T21:55:14.300Z,11.73
2023-05-11T21:57:41.248Z,11.60
2023-05-11T22:00:15.705Z,10.83
2023-05-11T22:02:42.833Z,12.33
2023-05-11T22:05:11.590Z,12.17
2023-05-11T22:07:41.656Z,11.40
2023-05-11T22:10:10.788Z,13.30
2023-05-11T22:12:38.308Z,13.33
2023-05-11T22:15:08.961Z,13.10
2023-05-11T22:17:42.064Z,13.00
2023-05-11T22:20:10.043Z,13.23
2023-05-11T22:22:39.787Z,14.10
2023-05-11T22:25:10.310Z,13.90
2023-05-11T22:27:41.133Z,14.77
2023-05-11T22:30:14.382Z,17.17
2023-05-11T22:32:44.436Z,16.43
2023-05-11T22:35:13.529Z,16.03
2023-05-11T22:37:43.592Z,16.17
2023-05-11T22:40:16.765Z,17.13
2023-05-11T22:42:47.010Z,18.37
2023-05-11T22:45:16.516Z,18.40
2023-05-11T22:47:45.684Z,19.23
2023-05-11T22:50:14.992Z,18.80
2023-05-11T22:52:45.105Z,17.60
2023-05-11T22:55:13.192Z,17.33
2023-05-11T22:57:40.201Z,17.33
2023-05-11T23:00:09.681Z,18.20
2023-05-11T23:02:40.360Z,15.93
2023-05-11T23:05:09.653Z,17.13
2023-05-11T23:07:39.666Z,18.23
2023-05-11T23:10:10.404Z,14.87
2023-05-11T23:12:40.681Z,15.00
2023-05-11T23:15:08.524Z,16.13
2023-05-11T23:17:36.614Z,16.50
2023-05-11T23:20:06.412Z,14.60
2023-05-11T23:22:36.506Z,14.60
2023-05-11T23:25:04.717Z,13.57
2023-05-11T23:27:34.877Z,11.77
2023-05-11T23:30:01.900Z,10.77
2023-05-11T23:32:32.329Z,10.03
2023-05-11T23:35:02.627Z,9.33
2023-05-11T23:37:32.686Z,9.20
2023-05-11T23:40:03.240Z,10.87
2023-05-11T23:42:32.382Z,10.77
2023-05-11T23:45:04.359Z,10.50
2023-05-11T23:47:34.599Z,9.97
2023-05-11T23:50:01.615Z,9.23
2023-05-11T23:52:29.810Z,8.30
2023-05-11T23:54:58.069Z,10.43
2023-05-11T23:57:28.166Z,9.87
2023-05-11T23:59:56.242Z,8.83
